createdAt,value
2019-05-19T00:01:51.904Z,33.30
2019-05-19T00:04:22.937Z,33.27
2019-05-19T00:06:54.392Z,34.03
2019-05-19T00:09:25.407Z,35.13
2019-05-19T00:11:56.656Z,34.23
2019-05-19T00:14:27.944Z,33.63
2019-05-19T00:16:59.205Z,35.43
2019-05-19T00:19:30.765Z,32.80
2019-05-19T00:22:01.994Z,36.20
2019-05-19T00:24:33.582Z,34.43
2019-05-19T00:27:04.928Z,31.97
2019-05-19T00:29:36.218Z,32.53
2019-05-19T00:32:07.241Z,29.90
2019-05-19T00:34:38.205Z,32.73
2019-05-19T00:37:09.209Z,30.53
2019-05-19T00:39:40.448Z,31.67
2019-05-19T00:42:11.623Z,33.20
2019-05-19T00:44:45.715Z,32.27
2019-05-19T00:47:17.195Z,29.93
2019-05-19T00:49:48.423Z,32.00
2019-05-19T00:52:19.652Z,30.40
2019-05-19T00:54:50.701Z,31.40
2019-05-19T00:57:22.178Z,31.13
2019-05-19T00:59:54.764Z,30.73
2019-05-19T01:02:26.114Z,31.17
2019-05-19T01:04:59.897Z,30.57
2019-05-19T01:07:30.828Z,30.13
2019-05-19T01:10:02.034Z,30.37
2019-05-19T01:12:33.349Z,33.57
2019-05-19T01:15:04.969Z,30.23
2019-05-19T01:17:36.437Z,28.83
2019-05-19T01:20:07.988Z,30.50
2019-05-19T01:22:40.257Z,31.70
2019-05-19T01:25:11.686Z,29.27
2019-05-19T01:27:42.895Z,29.63
2019-05-19T01:30:14.392Z,29.13
2019-05-19T01:32:45.708Z,29.63
2019-05-19T01:35:18.598Z,28.83
2019-05-19T01:37:49.801Z,29.90
2019-05-19T01:40:21.230Z,27.83
2019-05-19T01:42:53.480Z,25.33
2019-05-19T01:45:25.281Z,25.30
2019-05-19T01:47:56.569Z,26.03
2019-05-19T01:50:29.237Z,29.33
2019-05-19T01:53:00.273Z,25.07
2019-05-19T01:55:31.649Z,25.20
2019-05-19T01:58:02.875Z,23.57
2019-05-19T02:00:34.044Z,25.47
2019-05-19T02:03:05.374Z,25.07
2019-05-19T02:05:36.359Z,27.97
2019-05-19T02:08:07.757Z,25.23
2019-05-19T02:10:38.752Z,27.43
2019-05-19T02:13:10.107Z,24.90
2019-05-19T02:15:41.372Z,24.40
2019-05-19T02:18:12.656Z,25.20
2019-05-19T02:20:44.371Z,23.00
2019-05-19T02:23:15.632Z,24.77
2019-05-19T02:25:46.794Z,25.00
2019-05-19T02:28:18.172Z,25.73
2019-05-19T02:30:49.537Z,25.50
2019-05-19T02:33:20.954Z,24.00
2019-05-19T02:35:53.202Z,26.10
2019-05-19T02:38:25.088Z,25.00
2019-05-19T02:40:58.505Z,23.73
2019-05-19T02:43:30.622Z,23.87
2019-05-19T02:46:02.290Z,24.33
2019-05-19T02:48:36.222Z,24.40
2019-05-19T02:51:10.765Z,24.13
2019-05-19T02:53:44.333Z,24.60
2019-05-19T02:56:16.921Z,26.23
2019-05-19T02:58:49.166Z,26.93
2019-05-19T03:01:21.423Z,27.73
2019-05-19T03:03:57.648Z,26.63
2019-05-19T03:06:30.960Z,26.90
2019-05-19T03:09:02.885Z,23.60
2019-05-19T03:11:34.254Z,24.20
2019-05-19T03:14:05.690Z,22.90
2019-05-19T03:16:37.005Z,23.00
2019-05-19T03:19:08.417Z,23.90
2019-05-19T03:21:39.492Z,22.63
2019-05-19T03:24:10.874Z,22.13
2019-05-19T03:26:42.549Z,21.97
2019-05-19T03:29:16.376Z,23.90
2019-05-19T03:31:57.172Z,23.30
2019-05-19T03:34:28.831Z,25.43
2019-05-19T03:37:00.185Z,24.10
2019-05-19T03:39:33.055Z,24.30
2019-05-19T03:42:04.940Z,25.50
2019-05-19T03:44:38.076Z,24.50
2019-05-19T03:47:09.522Z,25.10
2019-05-19T03:49:40.703Z,25.90
2019-05-19T03:52:12.172Z,27.67
2019-05-19T03:54:43.537Z,24.47
2019-05-19T03:57:15.071Z,26.03
2019-05-19T03:59:46.658Z,24.63
2019-05-19T04:02:17.727Z,21.37
2019-05-19T04:04:49.401Z,18.27
2019-05-19T04:07:20.998Z,26.27
2019-05-19T04:09:52.079Z,24.57
2019-05-19T04:12:23.701Z,28.60
2019-05-19T04:14:55.012Z,26.67
2019-05-19T04:17:26.372Z,28.50
2019-05-19T04:19:57.397Z,26.83
2019-05-19T04:22:28.990Z,24.83
2019-05-19T04:25:00.319Z,25.97
2019-05-19T04:27:31.860Z,27.67
2019-05-19T04:30:03.778Z,25.70
2019-05-19T04:32:34.837Z,26.57
2019-05-19T04:35:06.185Z,26.77
2019-05-19T04:37:37.335Z,28.10
2019-05-19T04:40:10.920Z,26.93
2019-05-19T04:42:41.953Z,25.77
2019-05-19T04:45:14.963Z,27.53
2019-05-19T04:47:46.013Z,24.63
2019-05-19T04:50:17.462Z,27.47
2019-05-19T04:52:48.797Z,26.77
2019-05-19T04:55:20.076Z,26.30
2019-05-19T04:57:51.405Z,25.13
2019-05-19T05:00:22.697Z,28.27
2019-05-19T05:02:53.740Z,28.00
2019-05-19T05:05:25.157Z,24.57
2019-05-19T05:07:56.558Z,26.53
2019-05-19T05:10:27.598Z,30.60
2019-05-19T05:12:59.097Z,27.87
2019-05-19T05:15:30.328Z,29.57
2019-05-19T05:18:01.952Z,27.27
2019-05-19T05:20:33.646Z,30.63
2019-05-19T05:23:04.920Z,33.83
2019-05-19T05:25:36.469Z,31.10
2019-05-19T05:28:07.817Z,34.87
2019-05-19T05:30:39.044Z,31.63
2019-05-19T05:33:10.565Z,34.00
2019-05-19T05:35:42.161Z,33.67
2019-05-19T05:38:13.753Z,31.60
2019-05-19T05:40:46.398Z,33.43
2019-05-19T05:43:17.441Z,34.50
2019-05-19T05:45:48.894Z,34.03
2019-05-19T05:48:20.257Z,32.60
2019-05-19T05:50:51.520Z,32.37
2019-05-19T05:53:22.650Z,28.40
2019-05-19T05:55:54.252Z,34.13
2019-05-19T05:58:25.770Z,33.50
2019-05-19T06:00:57.017Z,32.80
2019-05-19T06:03:28.435Z,32.97
2019-05-19T06:05:59.792Z,31.13
2019-05-19T06:08:32.388Z,34.13
2019-05-19T06:11:03.369Z,32.97
2019-05-19T06:13:34.704Z,31.77
2019-05-19T06:16:06.045Z,33.87
2019-05-19T06:18:40.204Z,33.53
2019-05-19T06:21:11.520Z,32.03
2019-05-19T06:23:42.707Z,33.67
2019-05-19T06:26:13.671Z,33.63
2019-05-19T06:28:44.628Z,32.47
2019-05-19T06:31:15.832Z,31.50
2019-05-19T06:33:47.077Z,31.00
2019-05-19T06:36:18.403Z,31.23
2019-05-19T06:38:49.706Z,30.40
2019-05-19T06:41:21.928Z,33.03
2019-05-19T06:43:53.134Z,29.80
2019-05-19T06:46:24.424Z,33.03
2019-05-19T06:48:55.613Z,30.53
2019-05-19T06:51:26.944Z,31.70
2019-05-19T06:53:58.232Z,31.47
2019-05-19T06:56:29.168Z,33.00
2019-05-19T06:59:00.123Z,30.47
2019-05-19T07:01:31.555Z,32.63
2019-05-19T07:04:02.574Z,30.50
2019-05-19T07:06:36.796Z,30.30
2019-05-19T07:09:08.265Z,31.27
2019-05-19T07:11:39.442Z,30.73
2019-05-19T07:14:10.631Z,30.53
2019-05-19T07:16:41.876Z,31.03
2019-05-19T07:19:13.125Z,31.93
2019-05-19T07:21:47.928Z,29.27
2019-05-19T07:24:19.099Z,31.63
2019-05-19T07:26:50.347Z,31.20
2019-05-19T07:29:21.505Z,30.57
2019-05-19T07:31:52.672Z,30.17
2019-05-19T07:34:23.850Z,29.03
2019-05-19T07:36:55.017Z,30.83
2019-05-19T07:39:26.470Z,28.60
2019-05-19T07:41:59.324Z,29.00
2019-05-19T07:44:30.785Z,29.63
2019-05-19T07:47:01.868Z,28.50
2019-05-19T07:49:33.060Z,29.00
2019-05-19T07:52:04.072Z,27.90
2019-05-19T07:54:35.953Z,28.17
2019-05-19T07:57:07.903Z,28.17
2019-05-19T07:59:39.832Z,27.43
2019-05-19T08:02:10.823Z,29.00
2019-05-19T08:04:42.012Z,27.80
2019-05-19T08:07:14.029Z,28.20
2019-05-19T08:09:55.203Z,26.83
2019-05-19T08:12:27.979Z,27.10
2019-05-19T08:15:01.966Z,25.57
2019-05-19T08:17:33.334Z,26.57
2019-05-19T08:20:05.107Z,25.13
2019-05-19T08:22:36.282Z,24.20
2019-05-19T08:25:07.940Z,25.93
2019-05-19T08:27:39.472Z,24.57
2019-05-19T08:30:12.551Z,24.90
2019-05-19T08:32:43.840Z,25.40
2019-05-19T08:35:19.195Z,26.10
2019-05-19T08:37:50.977Z,23.50
2019-05-19T08:40:23.195Z,24.83
2019-05-19T08:42:56.361Z,24.67
2019-05-19T08:45:27.986Z,24.53
2019-05-19T08:47:59.038Z,24.00
2019-05-19T08:50:30.284Z,23.27
2019-05-19T08:53:03.372Z,23.00
2019-05-19T08:55:35.171Z,25.10
2019-05-19T08:58:07.236Z,24.33
2019-05-19T09:00:38.792Z,25.10
2019-05-19T09:03:09.820Z,24.63
2019-05-19T09:05:41.141Z,24.33
2019-05-19T09:08:13.875Z,25.70
2019-05-19T09:10:45.286Z,23.60
2019-05-19T09:13:17.225Z,26.20
2019-05-19T09:15:48.348Z,24.13
2019-05-19T09:18:19.561Z,25.77
2019-05-19T09:20:51.005Z,25.53
2019-05-19T09:23:22.443Z,23.53
2019-05-19T09:25:59.175Z,25.27
2019-05-19T09:28:30.957Z,24.13
2019-05-19T09:31:03.224Z,24.83
2019-05-19T09:33:40.015Z,23.80
2019-05-19T09:36:11.399Z,23.53
2019-05-19T09:38:42.540Z,24.70
2019-05-19T09:41:14.804Z,23.50
2019-05-19T09:43:46.005Z,22.10
2019-05-19T09:46:16.924Z,22.87
2019-05-19T09:48:50.187Z,22.40
2019-05-19T09:51:21.532Z,22.30
2019-05-19T09:53:52.944Z,22.37
2019-05-19T09:56:24.120Z,22.17
2019-05-19T09:58:59.520Z,22.20
2019-05-19T10:01:31.016Z,21.90
2019-05-19T10:04:02.307Z,22.27
2019-05-19T10:06:33.476Z,20.00
2019-05-19T10:09:17.310Z,18.30
2019-05-19T10:12:05.371Z,20.40
2019-05-19T10:14:37.349Z,20.00
2019-05-19T10:17:09.075Z,18.57
2019-05-19T10:19:40.243Z,19.00
2019-05-19T10:22:11.614Z,20.33
2019-05-19T10:24:59.300Z,19.13
2019-05-19T10:27:16.300Z,21.20
2019-05-19T10:29:47.614Z,23.13
2019-05-19T10:32:19.307Z,20.07
2019-05-19T10:34:50.226Z,20.07
2019-05-19T10:37:21.596Z,19.90
2019-05-19T10:39:52.924Z,19.43
2019-05-19T10:42:24.599Z,13.60
2019-05-19T10:44:55.851Z,15.13
2019-05-19T10:47:26.823Z,13.93
2019-05-19T10:49:57.989Z,11.53
2019-05-19T10:52:29.354Z,9.80
2019-05-19T10:55:01.943Z,8.18
2019-05-19T10:57:33.464Z,6.93
2019-05-19T11:00:05.485Z,9.37
2019-05-19T11:02:36.531Z,9.70
2019-05-19T11:05:10.893Z,8.43
2019-05-19T11:07:40.895Z,8.15
2019-05-19T11:10:12.833Z,9.08
2019-05-19T11:12:46.846Z,7.87
2019-05-19T11:15:16.892Z,8.93
2019-05-19T11:17:48.071Z,8.47
2019-05-19T11:20:20.041Z,9.15
2019-05-19T11:22:51.560Z,10.03
2019-05-19T11:25:33.325Z,10.23
2019-05-19T11:27:58.372Z,12.13
2019-05-19T11:30:29.294Z,11.88
2019-05-19T11:33:00.571Z,12.20
2019-05-19T11:35:32.939Z,11.87
2019-05-19T11:38:04.171Z,13.33
2019-05-19T11:40:35.336Z,13.13
2019-05-19T11:43:06.805Z,11.67
2019-05-19T11:45:37.965Z,13.60
2019-05-19T11:48:10.751Z,12.80
2019-05-19T11:50:42.373Z,12.03
2019-05-19T11:53:13.783Z,14.80
2019-05-19T11:55:44.700Z,12.50
2019-05-19T11:58:16.877Z,12.50
2019-05-19T12:00:48.054Z,11.77
2019-05-19T12:03:19.218Z,14.07
2019-05-19T12:05:50.953Z,13.32
2019-05-19T12:08:22.071Z,11.77
2019-05-19T12:10:53.141Z,12.20
2019-05-19T12:13:24.308Z,11.93
2019-05-19T12:15:56.856Z,11.80
2019-05-19T12:18:28.049Z,11.60
2019-05-19T12:20:59.228Z,9.03
2019-05-19T12:23:30.450Z,8.97
2019-05-19T12:26:22.720Z,10.13
2019-05-19T12:28:44.968Z,9.70
2019-05-19T12:31:16.480Z,10.15
2019-05-19T12:33:51.908Z,10.75
2019-05-19T12:36:21.033Z,11.03
2019-05-19T12:38:52.538Z,9.70
2019-05-19T12:41:23.785Z,10.50
2019-05-19T12:43:54.975Z,10.35
2019-05-19T12:46:26.216Z,10.18
2019-05-19T12:48:57.965Z,8.95
2019-05-19T12:51:29.708Z,13.25
2019-05-19T12:54:00.923Z,12.63
2019-05-19T12:56:39.621Z,11.53
2019-05-19T12:59:05.209Z,10.63
2019-05-19T13:01:37.949Z,9.43
2019-05-19T13:04:09.132Z,10.90
2019-05-19T13:06:40.075Z,14.97
2019-05-19T13:09:12.164Z,15.45
2019-05-19T13:11:44.795Z,16.67
2019-05-19T13:14:17.652Z,18.37
2019-05-19T13:16:49.705Z,18.50
2019-05-19T13:19:20.883Z,17.53
2019-05-19T13:21:52.576Z,20.43
2019-05-19T13:24:23.736Z,24.73
2019-05-19T13:26:56.783Z,21.63
2019-05-19T13:29:28.017Z,19.67
2019-05-19T13:31:59.412Z,19.70
2019-05-19T13:34:30.841Z,20.70
2019-05-19T13:37:02.122Z,19.33
2019-05-19T13:39:34.690Z,19.63
2019-05-19T13:42:05.873Z,18.27
2019-05-19T13:44:37.682Z,19.20
2019-05-19T13:47:09.084Z,18.93
2019-05-19T13:49:40.257Z,20.43
2019-05-19T13:52:11.416Z,22.37
2019-05-19T13:54:42.342Z,23.53
2019-05-19T13:57:14.199Z,22.23
2019-05-19T13:59:46.807Z,23.23
2019-05-19T14:02:17.962Z,23.37
2019-05-19T14:04:50.454Z,23.63
2019-05-19T14:07:21.596Z,23.67
2019-05-19T14:09:52.616Z,26.37
2019-05-19T14:12:24.107Z,26.50
2019-05-19T14:14:56.959Z,22.33
2019-05-19T14:17:27.881Z,26.60
2019-05-19T14:20:11.820Z,26.30
2019-05-19T14:22:43.291Z,27.60
2019-05-19T14:25:16.341Z,29.90
2019-05-19T14:27:47.988Z,27.97
2019-05-19T14:30:22.058Z,28.13
2019-05-19T14:33:23.508Z,27.93
2019-05-19T14:35:59.874Z,27.80
2019-05-19T14:38:31.193Z,27.27
2019-05-19T14:41:02.501Z,27.97
2019-05-19T14:43:37.043Z,27.10
2019-05-19T14:46:10.741Z,27.60
2019-05-19T14:48:42.160Z,29.30
2019-05-19T14:51:15.547Z,31.00
2019-05-19T14:53:46.516Z,29.70
2019-05-19T14:56:21.574Z,30.97
2019-05-19T14:58:54.135Z,30.90
2019-05-19T15:01:32.913Z,28.73
2019-05-19T15:04:10.078Z,29.77
2019-05-19T15:06:43.142Z,30.93
2019-05-19T15:09:15.664Z,29.77
2019-05-19T15:11:47.711Z,30.73
2019-05-19T15:14:19.160Z,28.53
2019-05-19T15:16:53.479Z,30.27
2019-05-19T15:19:27.356Z,29.50
2019-05-19T15:22:01.496Z,29.70
2019-05-19T15:24:32.702Z,29.40
2019-05-19T15:27:06.958Z,28.30
2019-05-19T15:29:38.699Z,30.50
2019-05-19T15:32:10.464Z,28.37
2019-05-19T15:34:41.887Z,27.50
2019-05-19T15:37:14.340Z,29.50
2019-05-19T15:39:46.783Z,27.90
2019-05-19T15:42:18.008Z,27.87
2019-05-19T15:44:51.648Z,27.93
2019-05-19T15:47:22.926Z,28.27
2019-05-19T15:49:54.148Z,28.87
2019-05-19T15:52:25.107Z,30.40
2019-05-19T15:54:58.082Z,28.70
2019-05-19T15:57:29.357Z,27.40
2019-05-19T16:00:00.285Z,27.97
2019-05-19T16:02:31.566Z,28.10
2019-05-19T16:05:02.774Z,28.67
2019-05-19T16:07:34.826Z,28.47
2019-05-19T16:10:07.844Z,26.80
2019-05-19T16:12:42.612Z,28.87
2019-05-19T16:15:14.244Z,26.57
2019-05-19T16:17:50.520Z,25.83
2019-05-19T16:20:22.100Z,24.70
2019-05-19T16:22:53.702Z,24.80
2019-05-19T16:25:25.202Z,22.93
2019-05-19T16:27:57.481Z,23.13
2019-05-19T16:30:29.336Z,22.30
2019-05-19T16:33:00.400Z,22.10
2019-05-19T16:35:31.890Z,22.23
2019-05-19T16:38:02.862Z,19.30
2019-05-19T16:40:34.205Z,20.57
2019-05-19T16:43:07.009Z,19.23
2019-05-19T16:45:38.656Z,20.50
2019-05-19T16:48:09.632Z,20.40
2019-05-19T16:50:41.764Z,18.80
2019-05-19T16:53:14.512Z,20.40
2019-05-19T16:55:58.792Z,20.43
2019-05-19T16:58:43.084Z,20.43
2019-05-19T17:01:04.224Z,20.53
2019-05-19T17:03:41.836Z,20.37
2019-05-19T17:06:13.066Z,19.37
2019-05-19T17:08:51.917Z,18.90
2019-05-19T17:11:23.111Z,21.30
2019-05-19T17:13:54.700Z,19.70
2019-05-19T17:16:25.856Z,17.70
2019-05-19T17:19:00.405Z,19.87
2019-05-19T17:21:31.351Z,19.07
2019-05-19T17:24:02.385Z,19.73
2019-05-19T17:26:33.608Z,18.17
2019-05-19T17:29:05.984Z,19.87
2019-05-19T17:31:40.284Z,19.27
2019-05-19T17:34:18.236Z,18.60
2019-05-19T17:36:54.712Z,18.97
2019-05-19T17:39:26.043Z,18.60
2019-05-19T17:42:01.013Z,20.00
2019-05-19T17:44:31.947Z,18.63
2019-05-19T17:47:03.779Z,19.10
2019-05-19T17:49:36.897Z,20.20
2019-05-19T17:52:07.940Z,20.23
2019-05-19T17:54:42.125Z,20.07
2019-05-19T17:57:16.015Z,20.67
2019-05-19T17:59:48.895Z,19.83
2019-05-19T18:02:20.246Z,20.17
2019-05-19T18:04:55.885Z,17.67
2019-05-19T18:07:27.047Z,19.57
2019-05-19T18:09:58.325Z,20.90
2019-05-19T18:12:29.897Z,20.33
2019-05-19T18:15:03.346Z,20.87
2019-05-19T18:17:34.341Z,20.47
2019-05-19T18:20:05.986Z,20.07
2019-05-19T18:22:38.053Z,19.67
2019-05-19T18:25:09.603Z,19.60
2019-05-19T18:27:40.576Z,20.47
2019-05-19T18:30:12.187Z,18.70
2019-05-19T18:32:46.358Z,19.37
2019-05-19T18:35:17.923Z,18.83
2019-05-19T18:37:49.412Z,21.70
2019-05-19T18:40:20.779Z,19.57
2019-05-19T18:42:52.839Z,19.83
2019-05-19T18:45:24.279Z,19.50
2019-05-19T18:47:56.294Z,19.70
2019-05-19T18:50:27.684Z,18.23
2019-05-19T18:52:58.718Z,18.50
2019-05-19T18:55:29.861Z,16.80
2019-05-19T18:58:03.755Z,18.97
2019-05-19T19:00:37.410Z,19.67
2019-05-19T19:03:08.488Z,17.43
2019-05-19T19:05:39.799Z,16.60
2019-05-19T19:08:10.885Z,16.73
2019-05-19T19:10:42.762Z,15.90
2019-05-19T19:13:14.323Z,20.43
2019-05-19T19:15:45.988Z,18.13
2019-05-19T19:18:17.180Z,19.17
2019-05-19T19:20:48.255Z,18.63
2019-05-19T19:23:19.626Z,17.50
2019-05-19T19:25:58.063Z,19.53
2019-05-19T19:28:29.514Z,18.83
2019-05-19T19:31:00.828Z,19.13
2019-05-19T19:33:32.146Z,18.27
2019-05-19T19:36:03.476Z,19.03
2019-05-19T19:38:34.916Z,18.43
2019-05-19T19:41:06.704Z,18.37
2019-05-19T19:43:37.863Z,16.23
2019-05-19T19:46:08.798Z,16.83
2019-05-19T19:48:40.651Z,18.60
2019-05-19T19:51:12.436Z,17.73
2019-05-19T19:53:44.040Z,17.10
2019-05-19T19:56:15.556Z,16.40
2019-05-19T19:58:47.820Z,15.90
2019-05-19T20:01:19.380Z,16.43
2019-05-19T20:03:51.786Z,16.67
2019-05-19T20:06:23.152Z,14.23
2019-05-19T20:08:54.161Z,15.47
2019-05-19T20:11:25.636Z,14.60
2019-05-19T20:13:57.240Z,14.33
2019-05-19T20:16:28.752Z,14.53
2019-05-19T20:19:00.215Z,14.17
2019-05-19T20:21:31.459Z,13.60
2019-05-19T20:24:03.043Z,14.40
2019-05-19T20:26:34.907Z,13.90
2019-05-19T20:29:09.574Z,12.00
2019-05-19T20:31:44.850Z,12.80
2019-05-19T20:34:17.014Z,10.47
2019-05-19T20:36:49.339Z,13.58
2019-05-19T20:39:20.844Z,11.97
2019-05-19T20:41:52.189Z,9.10
2019-05-19T20:44:24.595Z,9.77
2019-05-19T20:46:59.143Z,9.17
2019-05-19T20:49:31.690Z,8.87
2019-05-19T20:52:02.787Z,9.07
2019-05-19T20:54:34.081Z,8.40
2019-05-19T20:57:05.197Z,9.40
2019-05-19T20:59:39.007Z,7.93
2019-05-19T21:02:14.030Z,8.83
2019-05-19T21:04:45.705Z,8.60
2019-05-19T21:07:20.126Z,9.40
2019-05-19T21:10:00.857Z,8.97
2019-05-19T21:12:31.927Z,8.73
2019-05-19T21:15:04.421Z,9.83
2019-05-19T21:17:35.871Z,8.30
2019-05-19T21:20:09.410Z,9.77
2019-05-19T21:22:40.617Z,9.23
2019-05-19T21:25:12.180Z,9.67
2019-05-19T21:27:43.545Z,9.60
2019-05-19T21:30:15.157Z,10.90
2019-05-19T21:32:52.326Z,8.77
2019-05-19T21:35:23.611Z,9.87
2019-05-19T21:37:55.665Z,9.70
2019-05-19T21:40:27.007Z,10.37
2019-05-19T21:42:59.168Z,9.73
2019-05-19T21:45:30.680Z,10.40
2019-05-19T21:48:03.196Z,10.93
2019-05-19T21:50:34.828Z,11.47
2019-05-19T21:53:06.667Z,12.43
2019-05-19T21:55:38.052Z,11.57
2019-05-19T21:58:09.574Z,13.20
2019-05-19T22:00:42.407Z,13.33
2019-05-19T22:03:13.812Z,12.37
2019-05-19T22:05:53.000Z,13.80
2019-05-19T22:08:18.385Z,13.07
2019-05-19T22:10:49.689Z,14.30
2019-05-19T22:13:20.833Z,14.63
2019-05-19T22:15:52.104Z,15.30
2019-05-19T22:18:23.132Z,15.83
2019-05-19T22:20:54.169Z,14.80
2019-05-19T22:23:25.725Z,15.87
2019-05-19T22:25:57.037Z,14.90
2019-05-19T22:28:28.291Z,16.87
2019-05-19T22:30:59.678Z,17.40
2019-05-19T22:33:31.013Z,16.90
2019-05-19T22:36:04.233Z,17.00
2019-05-19T22:38:35.800Z,19.20
2019-05-19T22:41:07.204Z,19.70
2019-05-19T22:43:38.431Z,18.30
2019-05-19T22:46:09.739Z,19.03
2019-05-19T22:48:42.524Z,20.13
2019-05-19T22:51:13.773Z,19.80
2019-05-19T22:53:45.074Z,20.97
2019-05-19T22:56:16.599Z,19.90
2019-05-19T22:58:48.032Z,19.23
2019-05-19T23:01:19.378Z,20.10
2019-05-19T23:03:50.597Z,19.87
2019-05-19T23:06:21.862Z,20.50
2019-05-19T23:08:54.446Z,19.97
2019-05-19T23:11:25.760Z,20.47
2019-05-19T23:13:58.314Z,19.43
2019-05-19T23:16:29.628Z,20.90
2019-05-19T23:19:00.873Z,22.30
2019-05-19T23:21:34.770Z,21.33
2019-05-19T23:24:05.997Z,22.80
2019-05-19T23:26:38.493Z,20.80
2019-05-19T23:29:10.603Z,21.77
2019-05-19T23:31:42.279Z,20.50
2019-05-19T23:34:13.515Z,24.03
2019-05-19T23:36:44.796Z,23.70
2019-05-19T23:39:16.058Z,23.33
2019-05-19T23:41:47.896Z,23.03
2019-05-19T23:44:19.353Z,24.30
2019-05-19T23:46:50.996Z,22.50
2019-05-19T23:49:22.228Z,21.83
2019-05-19T23:51:53.478Z,22.97
2019-05-19T23:54:25.990Z,23.03
2019-05-19T23:56:59.286Z,22.10
2019-05-19T23:59:30.312Z,21.40
